Map

Track Data

SID SEASON NUMBER BASIN SUBBASIN NAME ISO_TIME NATURE LAT LON WMO_WIND WMO_PRES WMO_AGENCY TRACK_TYPE DIST2LAND LANDFALL IFLAG USA_AGENCY USA_ATCF_ID USA_LAT USA_LON USA_RECORD USA_STATUS USA_WIND USA_PRES USA_SSHS USA_R34_NE USA_R34_SE USA_R34_SW USA_R34_NW USA_R50_NE USA_R50_SE USA_R50_SW USA_R50_NW USA_R64_NE USA_R64_SE USA_R64_SW USA_R64_NW USA_POCI USA_ROCI USA_RMW USA_EYE TOKYO_LAT TOKYO_LON TOKYO_GRADE TOKYO_WIND TOKYO_PRES TOKYO_R50_DIR TOKYO_R50_LONG TOKYO_R50_SHORT TOKYO_R30_DIR TOKYO_R30_LONG TOKYO_R30_SHORT TOKYO_LAND CMA_LAT CMA_LON CMA_CAT CMA_WIND CMA_PRES HKO_LAT HKO_LON HKO_CAT HKO_WIND HKO_PRES NEWDELHI_LAT NEWDELHI_LON NEWDELHI_GRADE NEWDELHI_WIND NEWDELHI_PRES NEWDELHI_CI NEWDELHI_DP NEWDELHI_POCI REUNION_LAT REUNION_LON REUNION_TYPE REUNION_WIND REUNION_PRES REUNION_TNUM REUNION_CI REUNION_RMW REUNION_R34_NE REUNION_R34_SE REUNION_R34_SW REUNION_R34_NW REUNION_R50_NE REUNION_R50_SE REUNION_R50_SW REUNION_R50_NW REUNION_R64_NE REUNION_R64_SE REUNION_R64_SW REUNION_R64_NW BOM_LAT BOM_LON BOM_TYPE BOM_WIND BOM_PRES BOM_TNUM BOM_CI BOM_RMW BOM_R34_NE BOM_R34_SE BOM_R34_SW BOM_R34_NW BOM_R50_NE BOM_R50_SE BOM_R50_SW BOM_R50_NW BOM_R64_NE BOM_R64_SE BOM_R64_SW BOM_R64_NW BOM_ROCI BOM_POCI BOM_EYE BOM_POS_METHOD BOM_PRES_METHOD NADI_LAT NADI_LON NADI_CAT NADI_WIND NADI_PRES WELLINGTON_LAT WELLINGTON_LON WELLINGTON_WIND WELLINGTON_PRES DS824_LAT DS824_LON DS824_STAGE DS824_WIND DS824_PRES TD9636_LAT TD9636_LON TD9636_STAGE TD9636_WIND TD9636_PRES TD9635_LAT TD9635_LON TD9635_WIND TD9635_PRES TD9635_ROCI NEUMANN_LAT NEUMANN_LON NEUMANN_CLASS NEUMANN_WIND NEUMANN_PRES MLC_LAT MLC_LON MLC_CLASS MLC_WIND MLC_PRES USA_GUST BOM_GUST BOM_GUST_PER REUNION_GUST REUNION_GUST_PER USA_SEAHGT USA_SEARAD_NE USA_SEARAD_SE USA_SEARAD_SW USA_SEARAD_NW STORM_SPEED STORM_DIR
1970270N22285 1970 121 NA NA GRETA 1970-09-26 12:00:00 TS 22.4000 -75.4000 35 1010 hurdat_atl main 157 147 O_____________ hurdat_atl AL161970 22.4000 -75.4000 TS 35 1010 0 7 288
1970270N22285 1970 121 NA NA GRETA 1970-09-26 15:00:00 TS 22.5176 -75.7826 main 151 143 P_____________ AL161970 22.5176 -75.7826 TS 35 1008 0 8 292
1970270N22285 1970 121 NA NA GRETA 1970-09-26 18:00:00 TS 22.7000 -76.2000 35 hurdat_atl main 145 137 I_____________ hurdat_atl AL161970 22.7000 -76.2000 TS 35 1007 0 10 300
1970270N22285 1970 121 NA NA GRETA 1970-09-26 21:00:00 TS 22.9849 -76.6774 main 151 129 P_____________ AL161970 22.9849 -76.6774 TS 40 1006 0 11 303
1970270N22285 1970 121 NA NA GRETA 1970-09-27 00:00:00 TS 23.3000 -77.2000 45 1005 hurdat_atl main 129 73 O_____________ hurdat_atl AL161970 23.3000 -77.2000 TS 45 1005 0 11 302
1970270N22285 1970 121 NA NA GRETA 1970-09-27 03:00:00 TS 23.5720 -77.7127 main 73 49 P_____________ AL161970 23.5720 -77.7127 TS 45 1005 0 11 296
1970270N22285 1970 121 NA NA GRETA 1970-09-27 06:00:00 TS 23.8000 -78.3000 45 hurdat_atl main 54 54 I_____________ hurdat_atl AL161970 23.8000 -78.3000 TS 45 1005 0 13 288
1970270N22285 1970 121 NA NA GRETA 1970-09-27 09:00:00 TS 23.9650 -79.0203 main 84 84 P_____________ AL161970 23.9650 -79.0203 TS 45 1005 0 14 282
1970270N22285 1970 121 NA NA GRETA 1970-09-27 12:00:00 TS 24.1000 -79.8000 45 1005 hurdat_atl main 127 100 O_____________ hurdat_atl AL161970 24.1000 -79.8000 TS 45 1005 0 14 282
1970270N22285 1970 121 NA NA GRETA 1970-09-27 15:00:00 TS 24.2496 -80.5502 main 101 78 P_____________ AL161970 24.2496 -80.5502 TS 37 1006 0 14 282
1970270N22285 1970 121 NA NA GRETA 1970-09-27 18:00:00 TS 24.4000 -81.3000 30 1007 hurdat_atl main 80 80 O_____________ hurdat_atl AL161970 24.4000 -81.3000 TD 30 1007 -1 15 282
1970270N22285 1970 121 NA NA GRETA 1970-09-27 21:00:00 TS 24.5579 -82.1173 main 112 112 P_____________ AL161970 24.5579 -82.1173 TD 30 -1 14 282
1970270N22285 1970 121 NA GM GRETA 1970-09-28 00:00:00 TS 24.7000 -82.8000 30 hurdat_atl main 170 170 O_____________ hurdat_atl AL161970 24.7000 -82.8000 TD 30 -1 10 285
1970270N22285 1970 121 NA GM GRETA 1970-09-28 03:00:00 TS 24.8144 -83.1827 main 194 194 P_____________ AL161970 24.8144 -83.1827 TD 30 -1 6 290
1970270N22285 1970 121 NA GM GRETA 1970-09-28 06:00:00 TS 24.9000 -83.4000 30 hurdat_atl main 203 203 O_____________ hurdat_atl AL161970 24.9000 -83.4000 TD 30 -1 4 292
1970270N22285 1970 121 NA GM GRETA 1970-09-28 09:00:00 TS 24.9724 -83.6150 main 215 215 P_____________ AL161970 24.9724 -83.6150 TD 30 -1 4 285
1970270N22285 1970 121 NA GM GRETA 1970-09-28 12:00:00 TS 25.0000 -83.8000 30 hurdat_atl main 233 233 O_____________ hurdat_atl AL161970 25.0000 -83.8000 TD 30 -1 4 269
1970270N22285 1970 121 NA GM GRETA 1970-09-28 15:00:00 TS 24.9650 -84.0076 main 242 234 P_____________ AL161970 24.9650 -84.0076 TD 30 -1 4 255
1970270N22285 1970 121 NA GM GRETA 1970-09-28 18:00:00 TS 24.9000 -84.2000 30 hurdat_atl main 237 237 O_____________ hurdat_atl AL161970 24.9000 -84.2000 TD 30 -1 3 250
1970270N22285 1970 121 NA GM GRETA 1970-09-28 21:00:00 TS 24.8500 -84.3650 main 234 234 P_____________ AL161970 24.8500 -84.3650 TD 30 -1 3 250
1970270N22285 1970 121 NA GM GRETA 1970-09-29 00:00:00 TS 24.8000 -84.5000 30 hurdat_atl main 237 237 O_____________ hurdat_atl AL161970 24.8000 -84.5000 TD 30 -1 2 246
1970270N22285 1970 121 NA GM GRETA 1970-09-29 03:00:00 TS 24.7500 -84.6150 main 231 231 P_____________ AL161970 24.7500 -84.6150 TD 30 -1 2 241
1970270N22285 1970 121 NA GM GRETA 1970-09-29 06:00:00 TS 24.7000 -84.7000 30 hurdat_atl main 234 234 O_____________ hurdat_atl AL161970 24.7000 -84.7000 TD 30 -1 1 231
1970270N22285 1970 121 NA GM GRETA 1970-09-29 09:00:00 TS 24.6575 -84.7424 main 234 223 P_____________ AL161970 24.6575 -84.7424 TD 30 -1 1 220
1970270N22285 1970 121 NA GM GRETA 1970-09-29 12:00:00 TS 24.6000 -84.8000 30 hurdat_atl main 227 221 O_____________ hurdat_atl AL161970 24.6000 -84.8000 TD 30 -1 2 231
1970270N22285 1970 121 NA GM GRETA 1970-09-29 15:00:00 TS 24.5150 -84.9350 main 221 215 P_____________ AL161970 24.5150 -84.9350 TD 30 -1 3 234
1970270N22285 1970 121 NA GM GRETA 1970-09-29 18:00:00 TS 24.4000 -85.1000 30 hurdat_atl main 220 216 O_____________ hurdat_atl AL161970 24.4000 -85.1000 TD 30 -1 4 228
1970270N22285 1970 121 NA GM GRETA 1970-09-29 21:00:00 TS 24.2650 -85.2424 main 216 211 P_____________ AL161970 24.2650 -85.2424 TD 30 -1 4 222
1970270N22285 1970 121 NA GM GRETA 1970-09-30 00:00:00 TS 24.1000 -85.4000 30 hurdat_atl main 211 203 O_____________ hurdat_atl AL161970 24.1000 -85.4000 TD 30 -1 5 221
1970270N22285 1970 121 NA GM GRETA 1970-09-30 03:00:00 TS 23.9075 -85.5850 main 211 203 P_____________ AL161970 23.9075 -85.5850 TD 30 -1 5 222
1970270N22285 1970 121 NA GM GRETA 1970-09-30 06:00:00 TS 23.7000 -85.8000 30 hurdat_atl main 211 206 O_____________ hurdat_atl AL161970 23.7000 -85.8000 TD 30 -1 6 225
1970270N22285 1970 121 NA GM GRETA 1970-09-30 09:00:00 TS 23.4925 -86.0425 main 206 199 P_____________ AL161970 23.4925 -86.0425 TD 30 -1 6 229
1970270N22285 1970 121 NA GM GRETA 1970-09-30 12:00:00 TS 23.3000 -86.3000 30 hurdat_atl main 205 196 O_____________ hurdat_atl AL161970 23.3000 -86.3000 TD 30 -1 6 234
1970270N22285 1970 121 NA GM GRETA 1970-09-30 15:00:00 TS 23.1500 -86.5499 main 186 168 P_____________ AL161970 23.1500 -86.5499 TD 30 -1 6 237
1970270N22285 1970 121 NA GM GRETA 1970-09-30 18:00:00 TS 23.0000 -86.8000 30 hurdat_atl main 168 145 O_____________ hurdat_atl AL161970 23.0000 -86.8000 TD 30 -1 6 234
1970270N22285 1970 121 NA GM GRETA 1970-09-30 21:00:00 TS 22.8075 -87.0575 main 145 123 P_____________ AL161970 22.8075 -87.0575 TD 30 -1 6 229
1970270N22285 1970 121 NA GM GRETA 1970-10-01 00:00:00 TS 22.6000 -87.3000 30 1007 hurdat_atl main 124 102 O_____________ hurdat_atl AL161970 22.6000 -87.3000 TD 30 1007 -1 6 225
1970270N22285 1970 121 NA GM GRETA 1970-10-01 03:00:00 TS 22.3999 -87.4999 main 102 78 P_____________ AL161970 22.3999 -87.4999 TD 30 1006 -1 5 223
1970270N22285 1970 121 NA GM GRETA 1970-10-01 06:00:00 TS 22.2000 -87.7000 30 hurdat_atl main 78 55 I_____________ hurdat_atl AL161970 22.2000 -87.7000 TD 30 1006 -1 6 225
1970270N22285 1970 121 NA GM GRETA 1970-10-01 09:00:00 TS 22.0000 -87.9349 main 55 33 P_____________ AL161970 22.0000 -87.9349 TD 30 1006 -1 6 229
1970270N22285 1970 121 NA GM GRETA 1970-10-01 12:00:00 TS 21.8000 -88.2000 30 1006 hurdat_atl main 33 11 O_____________ hurdat_atl AL161970 21.8000 -88.2000 TD 30 1006 -1 7 232
1970270N22285 1970 121 NA GM GRETA 1970-10-01 15:00:00 TS 21.5925 -88.4925 main 11 0 P_____________ AL161970 21.5925 -88.4925 TD 30 -1 7 234
1970270N22285 1970 121 NA NA GRETA 1970-10-01 18:00:00 TS 21.4000 -88.8000 30 hurdat_atl main 0 0 O_____________ hurdat_atl AL161970 21.4000 -88.8000 TD 30 -1 7 237
1970270N22285 1970 121 NA NA GRETA 1970-10-01 21:00:00 TS 21.2349 -89.0924 main 0 0 P_____________ AL161970 21.2349 -89.0924 TD 30 -1 6 242
1970270N22285 1970 121 NA NA GRETA 1970-10-02 00:00:00 TS 21.1000 -89.4000 30 hurdat_atl main 0 0 O_____________ hurdat_atl AL161970 21.1000 -89.4000 TD 30 -1 7 247
1970270N22285 1970 121 NA NA GRETA 1970-10-02 03:00:00 TS 20.9775 -89.7500 main 0 0 P_____________ AL161970 20.9775 -89.7500 TD 30 -1 7 253
1970270N22285 1970 121 NA NA GRETA 1970-10-02 06:00:00 TS 20.9000 -90.1000 30 hurdat_atl main 0 0 O_____________ hurdat_atl AL161970 20.9000 -90.1000 TD 30 -1 6 261
1970270N22285 1970 121 NA GM GRETA 1970-10-02 09:00:00 TS 20.8849 -90.4074 main 10 10 P_____________ AL161970 20.8849 -90.4074 TD 27 -1 6 270
1970270N22285 1970 121 NA GM GRETA 1970-10-02 12:00:00 TS 20.9000 -90.7000 25 hurdat_atl main 33 33 O_____________ hurdat_atl AL161970 20.9000 -90.7000 TD 25 -1 6 272
1970270N22285 1970 121 NA GM GRETA 1970-10-02 15:00:00 TS 20.8999 -91.0000 main 63 63 P_____________ AL161970 20.8999 -91.0000 TD 25 -1 6 270
1970270N22285 1970 121 NA GM GRETA 1970-10-02 18:00:00 TS 20.9000 -91.3000 25 hurdat_atl main 94 94 O_____________ hurdat_atl AL161970 20.9000 -91.3000 TD 25 -1 6 270
1970270N22285 1970 121 NA GM GRETA 1970-10-02 21:00:00 TS 20.8999 -91.6000 main 122 122 P_____________ AL161970 20.8999 -91.6000 TD 25 -1 6 270
1970270N22285 1970 121 NA GM GRETA 1970-10-03 00:00:00 TS 20.9000 -91.9000 25 1008 hurdat_atl main 152 152 O_____________ hurdat_atl AL161970 20.9000 -91.9000 TD 25 1008 -1 6 269
1970270N22285 1970 121 NA GM GRETA 1970-10-03 03:00:00 TS 20.8924 -92.2001 main 182 182 P_____________ AL161970 20.8924 -92.2001 TD 25 1008 -1 6 270
1970270N22285 1970 121 NA GM GRETA 1970-10-03 06:00:00 TS 20.9000 -92.5000 25 hurdat_atl main 212 212 I_____________ hurdat_atl AL161970 20.9000 -92.5000 TD 25 1008 -1 6 275
1970270N22285 1970 121 NA GM GRETA 1970-10-03 09:00:00 TS 20.9424 -92.7925 main 243 243 P_____________ AL161970 20.9424 -92.7925 TD 25 1008 -1 6 280
1970270N22285 1970 121 NA GM GRETA 1970-10-03 12:00:00 TS 21.0000 -93.1000 25 1009 hurdat_atl main 271 271 O_____________ hurdat_atl AL161970 21.0000 -93.1000 TD 25 1009 -1 6 280
1970270N22285 1970 121 NA GM GRETA 1970-10-03 15:00:00 TS 21.0424 -93.4276 main 278 278 P_____________ AL161970 21.0424 -93.4276 TD 25 -1 7 279
1970270N22285 1970 121 NA GM GRETA 1970-10-03 18:00:00 TS 21.1000 -93.8000 25 hurdat_atl main 302 271 O_____________ hurdat_atl AL161970 21.1000 -93.8000 TD 25 -1 8 280
1970270N22285 1970 121 NA GM GRETA 1970-10-03 21:00:00 TS 21.1774 -94.2277 main 271 236 P_____________ AL161970 21.1774 -94.2277 TD 25 -1 9 283
1970270N22285 1970 121 NA GM GRETA 1970-10-04 00:00:00 TS 21.3000 -94.7000 25 hurdat_atl main 236 213 O_____________ hurdat_atl AL161970 21.3000 -94.7000 TD 25 -1 9 289
1970270N22285 1970 121 NA GM GRETA 1970-10-04 03:00:00 TS 21.4848 -95.1775 main 213 165 P_____________ AL161970 21.4848 -95.1775 TD 25 -1 10 293
1970270N22285 1970 121 NA GM GRETA 1970-10-04 06:00:00 TS 21.7000 -95.7000 25 hurdat_atl main 165 118 O_____________ hurdat_atl AL161970 21.7000 -95.7000 TD 25 -1 11 292
1970270N22285 1970 121 NA GM GRETA 1970-10-04 09:00:00 TS 21.8999 -96.2776 main 108 68 P_____________ AL161970 21.8999 -96.2776 TD 25 -1 12 290
1970270N22285 1970 121 NA GM GRETA 1970-10-04 12:00:00 TS 22.1000 -96.9000 25 1010 hurdat_atl main 68 30 O_____________ hurdat_atl AL161970 22.1000 -96.9000 TD 25 1010 -1 12 289
1970270N22285 1970 121 NA GM GRETA 1970-10-04 15:00:00 TS 22.2923 -97.5428 main 30 0 P_____________ AL161970 22.2923 -97.5428 TD 25 -1 13 288
1970270N22285 1970 121 NA NA GRETA 1970-10-04 18:00:00 TS 22.5000 -98.2000 25 hurdat_atl main 0 0 O_____________ hurdat_atl AL161970 22.5000 -98.2000 TD 25 -1 13 290
1970270N22285 1970 121 NA NA GRETA 1970-10-04 21:00:00 TS 22.7405 -98.8519 main 0 0 P_____________ AL161970 22.7405 -98.8519 TD 25 -1 13 293
1970270N22285 1970 121 NA NA GRETA 1970-10-05 00:00:00 TS 23.0000 -99.5000 25 hurdat_atl main 0 O_____________ hurdat_atl AL161970 23.0000 -99.5000 TD 25 -1 13 294

About IBTrACS Database

This database is a web-friendly format of International Best Track Archive for Climate Stewardship (IBTrACS), a global best track data archive curated by NOAA dating back to 1842.

Updated: 2021-12-06